Time;durP1;ratioP1;P1;durP2;ratioP2;P2;SDS_P1;SDS_P2;PMS_P1;PMS_P2;Temp;Humidity;BMP_temperature;BMP_pressure;BME280_temperature;BME280_humidity;BME280_pressure;Samples;Min_cycle;Max_cycle;Signal;HPM_P1;HPM_P2
2022/10/03 00:01:00;;;;;;;8.18;2.08;;;18.20;1.00;;;;;;5092556;28;20031;-59
2022/10/03 00:03:31;;;;;;;9.15;2.10;;;18.30;1.00;;;;;;5088095;28;20024;-59
2022/10/03 00:06:09;;;;;;;8.73;2.42;;;18.40;1.00;;;;;;5093738;28;20074;-59
2022/10/03 00:09:03;;;;;;;6.93;2.20;;;18.40;1.00;;;;;;5094907;28;20030;-59
2022/10/03 00:11:52;;;;;;;11.25;2.63;;;18.40;1.00;;;;;;5081732;28;20027;-59
2022/10/03 00:14:40;;;;;;;6.80;2.97;;;18.40;1.00;;;;;;5073958;28;20099;-59
2022/10/03 00:17:20;;;;;;;6.70;2.35;;;18.40;1.00;;;;;;5087387;28;20024;-59
2022/10/03 00:19:54;;;;;;;12.40;2.50;;;18.40;1.00;;;;;;5087524;28;20393;-59
2022/10/03 00:22:31;;;;;;;10.57;3.00;;;18.40;1.00;;;;;;5086818;28;20115;-59
2022/10/03 00:25:02;;;;;;;11.90;2.58;;;18.30;1.00;;;;;;5081959;28;20020;-59
2022/10/03 00:27:28;;;;;;;8.95;2.63;;;18.30;1.00;;;;;;5092567;28;20404;-59
2022/10/03 00:30:03;;;;;;;10.07;2.10;;;18.30;1.00;;;;;;5094362;28;20099;-59
2022/10/03 00:32:42;;;;;;;10.95;2.83;;;18.30;1.00;;;;;;5093075;28;20024;-59
2022/10/03 00:35:19;;;;;;;8.73;2.70;;;18.30;1.00;;;;;;5094226;28;20040;-59
2022/10/03 00:37:49;;;;;;;7.47;2.88;;;18.30;1.00;;;;;;5086414;28;20123;-59
2022/10/03 00:41:08;;;;;;;13.25;2.95;;;18.30;1.00;;;;;;5089631;28;20074;-59
2022/10/03 00:44:04;;;;;;;9.27;3.10;;;18.20;1.00;;;;;;5060061;28;20063;-59
2022/10/03 00:47:02;;;;;;;9.13;3.20;;;18.10;1.00;;;;;;5093390;28;20043;-60
2022/10/03 00:49:33;;;;;;;11.90;3.35;;;18.20;1.00;;;;;;5083271;28;20036;-59
2022/10/03 00:52:26;;;;;;;11.75;3.00;;;18.10;1.00;;;;;;5079875;28;20052;-59
2022/10/03 00:55:16;;;;;;;10.68;2.75;;;18.10;1.00;;;;;;5092362;28;20089;-59
2022/10/03 00:57:49;;;;;;;6.18;2.65;;;18.20;1.00;;;;;;5081873;28;20040;-59
2022/10/03 01:00:32;;;;;;;11.27;2.92;;;18.10;1.00;;;;;;5085909;28;20066;-59
2022/10/03 01:03:04;;;;;;;12.68;2.97;;;18.10;1.00;;;;;;5105944;28;20043;-59
2022/10/03 01:05:53;;;;;;;9.38;2.50;;;18.10;1.00;;;;;;5090382;28;20047;-59
2022/10/03 01:08:33;;;;;;;9.57;3.15;;;18.00;1.00;;;;;;5085473;28;20046;-59
2022/10/03 01:11:20;;;;;;;11.82;2.83;;;18.00;1.00;;;;;;5092977;28;20077;-59
2022/10/03 01:14:13;;;;;;;5.57;2.45;;;18.00;1.00;;;;;;5087275;28;20056;-59
2022/10/03 01:17:04;;;;;;;7.13;2.50;;;17.90;1.00;;;;;;5087997;28;20493;-59
2022/10/03 01:20:06;;;;;;;7.35;2.65;;;18.00;1.00;;;;;;5092570;28;20028;-59
2022/10/03 01:22:32;;;;;;;10.32;2.95;;;18.00;1.00;;;;;;5086623;28;20066;-59
2022/10/03 01:25:13;;;;;;;8.23;2.80;;;18.00;1.00;;;;;;5083147;28;20412;-59
2022/10/03 01:30:46;;;;;;;6.10;2.47;;;17.90;1.00;;;;;;5079737;28;20078;-59
2022/10/03 01:33:22;;;;;;;7.47;2.70;;;17.90;1.00;;;;;;5092096;28;20036;-59
2022/10/03 01:36:01;;;;;;;8.20;3.20;;;18.00;1.00;;;;;;5080094;28;20028;-59
2022/10/03 01:38:54;;;;;;;7.07;2.83;;;18.00;1.00;;;;;;5088189;28;20043;-59
2022/10/03 01:41:33;;;;;;;6.80;2.70;;;17.90;1.00;;;;;;5092085;28;20051;-59
2022/10/03 01:44:05;;;;;;;6.45;3.03;;;17.90;1.00;;;;;;5092566;28;20032;-58
2022/10/03 01:46:52;;;;;;;8.50;3.10;;;17.80;1.00;;;;;;5091792;28;20103;-59
2022/10/03 01:49:37;;;;;;;10.63;3.00;;;17.80;1.00;;;;;;5078563;28;20016;-59
2022/10/03 01:52:08;;;;;;;7.10;3.10;;;17.80;1.00;;;;;;5089658;28;20081;-59
2022/10/03 01:54:48;;;;;;;6.50;2.55;;;17.80;1.00;;;;;;5092177;28;20111;-59
2022/10/03 01:57:26;;;;;;;8.93;3.40;;;17.70;1.00;;;;;;5091951;28;20489;-59
2022/10/03 01:59:51;;;;;;;6.22;3.35;;;17.80;1.00;;;;;;5092992;28;20032;-59
2022/10/03 02:02:40;;;;;;;6.28;3.30;;;17.80;1.00;;;;;;5091840;28;20528;-59
2022/10/03 02:05:13;;;;;;;7.38;3.55;;;17.70;1.00;;;;;;5090738;28;20027;-59
2022/10/03 02:07:59;;;;;;;8.73;4.05;;;17.50;1.00;;;;;;5090280;28;20105;-59
2022/10/03 02:10:34;;;;;;;7.57;3.42;;;17.50;1.00;;;;;;5099918;28;20424;-59
2022/10/03 02:13:15;;;;;;;8.52;4.03;;;17.60;1.00;;;;;;5081506;28;20122;-59
2022/10/03 02:16:04;;;;;;;7.13;4.00;;;17.60;1.00;;;;;;5092293;28;20429;-58
2022/10/03 02:22:41;;;;;;;9.10;3.92;;;17.60;1.00;;;;;;5080283;28;20058;-59
2022/10/03 02:25:24;;;;;;;8.23;4.65;;;17.60;1.00;;;;;;5082734;28;20111;-59
2022/10/03 02:28:17;;;;;;;5.15;3.30;;;17.50;1.00;;;;;;5089080;28;20028;-59
2022/10/03 02:31:13;;;;;;;9.40;3.65;;;17.50;1.00;;;;;;5074887;28;20044;-59
2022/10/03 02:34:10;;;;;;;8.93;3.88;;;17.50;1.00;;;;;;5076621;28;20524;-59
2022/10/03 02:37:13;;;;;;;3.90;3.42;;;17.50;1.00;;;;;;5089133;28;20032;-58
2022/10/03 02:39:59;;;;;;;8.15;4.10;;;17.40;1.00;;;;;;5071704;28;20077;-59
2022/10/03 02:42:43;;;;;;;5.20;3.33;;;17.30;1.00;;;;;;5083522;28;20090;-59
2022/10/03 02:45:24;;;;;;;6.47;4.18;;;17.40;1.00;;;;;;5088796;28;20039;-59
2022/10/03 02:48:22;;;;;;;7.07;4.20;;;17.40;1.00;;;;;;5089662;28;20036;-59
2022/10/03 02:51:11;;;;;;;8.05;3.90;;;17.40;1.00;;;;;;5077758;28;20055;-59
2022/10/03 02:53:51;;;;;;;9.50;4.78;;;17.40;1.00;;;;;;5086444;28;20398;-59
2022/10/03 02:56:34;;;;;;;6.35;3.97;;;17.30;1.00;;;;;;5099642;28;20213;-59
2022/10/03 02:59:36;;;;;;;7.85;3.92;;;17.40;1.00;;;;;;5089059;28;20162;-59
2022/10/03 03:02:11;;;;;;;8.45;4.43;;;17.40;1.00;;;;;;5091716;28;20028;-59
2022/10/03 03:05:00;;;;;;;;;;;17.40;1.00;;;;;;5085834;28;20032;-59
2022/10/03 03:08:03;;;;;;;5.60;4.68;;;17.40;1.00;;;;;;5081353;28;20010;-59
2022/10/03 03:10:58;;;;;;;7.68;4.50;;;17.10;1.00;;;;;;5087061;28;20066;-59
2022/10/03 03:13:41;;;;;;;5.45;4.38;;;17.20;1.00;;;;;;5088043;28;20024;-59
2022/10/03 03:16:10;;;;;;;4.93;4.28;;;17.30;1.00;;;;;;5103057;28;20397;-59
2022/10/03 03:18:53;;;;;;;12.00;4.38;;;17.30;1.00;;;;;;5090091;28;20043;-59
2022/10/03 03:21:28;;;;;;;8.90;5.07;;;17.30;1.00;;;;;;5089763;28;20047;-59
2022/10/03 03:24:19;;;;;;;8.20;4.53;;;17.20;1.00;;;;;;5083955;28;20033;-59
2022/10/03 03:27:26;;;;;;;6.00;4.25;;;17.20;1.00;;;;;;5090871;28;20063;-59
2022/10/03 03:29:52;;;;;;;9.43;5.43;;;17.30;1.00;;;;;;5077364;28;20051;-59
2022/10/03 03:32:20;;;;;;;6.03;4.20;;;17.20;1.00;;;;;;5089017;28;20051;-59
2022/10/03 03:35:08;;;;;;;8.48;5.18;;;17.20;1.00;;;;;;5080462;28;20040;-59
2022/10/03 03:37:55;;;;;;;10.13;4.22;;;17.20;1.00;;;;;;5085664;28;20085;-59
2022/10/03 03:41:09;;;;;;;10.68;5.10;;;17.20;1.00;;;;;;5081196;28;20112;-59
2022/10/03 03:43:40;;;;;;;8.63;4.32;;;17.20;1.00;;;;;;5077078;28;20020;-59
2022/10/03 03:46:21;;;;;;;7.68;4.97;;;17.20;1.00;;;;;;5085813;28;20020;-59
2022/10/03 03:49:05;;;;;;;7.05;4.53;;;17.20;1.00;;;;;;5093986;28;20027;-59
2022/10/03 03:51:43;;;;;;;8.45;4.47;;;17.20;1.00;;;;;;5094685;28;20046;-59
2022/10/03 03:54:43;;;;;;;8.00;4.03;;;17.20;1.00;;;;;;5091245;28;20460;-59
2022/10/03 03:57:23;;;;;;;8.35;4.53;;;17.20;1.00;;;;;;5088829;28;20107;-59
2022/10/03 04:00:07;;;;;;;8.63;4.70;;;17.10;1.00;;;;;;5093129;28;20039;-59
2022/10/03 04:02:57;;;;;;;9.25;4.68;;;17.10;1.00;;;;;;5095077;28;20027;-59
2022/10/03 04:05:23;;;;;;;11.88;4.75;;;17.10;1.00;;;;;;5092284;28;20036;-59
2022/10/03 04:08:17;;;;;;;10.52;4.80;;;17.10;1.00;;;;;;5095029;28;20016;-59
2022/10/03 04:11:11;;;;;;;6.35;4.53;;;17.10;1.00;;;;;;5084025;28;20033;-59
2022/10/03 04:13:59;;;;;;;11.00;4.72;;;17.10;1.00;;;;;;5082360;28;20038;-59
2022/10/03 04:20:00;;;;;;;7.25;4.10;;;17.00;1.00;;;;;;5084195;28;20135;-59
2022/10/03 04:22:31;;;;;;;9.02;4.78;;;17.00;1.00;;;;;;5095011;28;20067;-59
2022/10/03 04:25:20;;;;;;;6.43;4.20;;;17.00;1.00;;;;;;5084306;28;20016;-59
2022/10/03 04:28:25;;;;;;;9.00;4.85;;;17.00;1.00;;;;;;5080391;28;20029;-59
2022/10/03 04:31:13;;;;;;;7.38;4.15;;;16.90;1.00;;;;;;5084356;28;20101;-59
2022/10/03 04:33:53;;;;;;;9.20;4.75;;;16.90;1.00;;;;;;5076609;28;20073;-59
2022/10/03 04:36:37;;;;;;;7.97;4.72;;;16.90;1.00;;;;;;5109702;28;20316;-59
2022/10/03 04:39:34;;;;;;;6.72;4.78;;;16.90;1.00;;;;;;5093477;28;20119;-59
2022/10/03 04:42:30;;;;;;;8.25;4.35;;;16.90;1.00;;;;;;5091405;28;20581;-59
2022/10/03 04:45:14;;;;;;;8.27;4.90;;;16.90;1.00;;;;;;5076342;28;20060;-59
2022/10/03 04:47:42;;;;;;;9.57;5.03;;;16.90;1.00;;;;;;5094082;28;20026;-59
2022/10/03 04:50:11;;;;;;;4.97;4.28;;;16.70;1.00;;;;;;5093090;28;20027;-59
2022/10/03 04:53:12;;;;;;;7.47;4.80;;;16.70;1.00;;;;;;5094000;28;20044;-59
2022/10/03 04:55:37;;;;;;;5.78;5.15;;;16.70;1.00;;;;;;5091469;28;20075;-59
2022/10/03 04:58:03;;;;;;;7.13;5.43;;;16.70;1.00;;;;;;5093751;28;20020;-60
2022/10/03 05:01:08;;;;;;;7.25;5.10;;;16.70;1.00;;;;;;5092352;28;20032;-59
2022/10/03 05:04:20;;;;;;;5.95;5.35;;;16.60;1.00;;;;;;5091929;28;20094;-59
2022/10/03 05:07:06;;;;;;;9.68;5.95;;;16.60;1.00;;;;;;5081071;28;20024;-59
2022/10/03 05:09:54;;;;;;;8.20;5.20;;;16.60;1.00;;;;;;5089511;28;20399;-59
2022/10/03 05:12:58;;;;;;;8.93;6.18;;;16.50;1.00;;;;;;5081856;28;20448;-59
2022/10/03 05:15:27;;;;;;;7.32;6.07;;;16.60;1.00;;;;;;5083871;28;20032;-59
2022/10/03 05:18:13;;;;;;;6.70;5.47;;;16.40;1.00;;;;;;5093136;28;20427;-59
2022/10/03 05:20:47;;;;;;;7.13;5.82;;;16.40;1.00;;;;;;5090935;28;20031;-59
2022/10/03 05:23:22;;;;;;;10.15;7.43;;;16.60;1.00;;;;;;5092710;28;20024;-59
2022/10/03 05:26:06;;;;;;;13.27;8.30;;;16.40;1.00;;;;;;5090063;28;20024;-59
2022/10/03 05:28:58;;;;;;;9.18;7.70;;;16.50;1.00;;;;;;5081179;28;20024;-59
2022/10/03 05:31:32;;;;;;;12.57;9.98;;;16.50;1.00;;;;;;5091618;28;20027;-60
2022/10/03 05:34:01;;;;;;;16.98;9.77;;;16.50;1.00;;;;;;5091977;28;20032;-59
2022/10/03 05:36:59;;;;;;;17.88;10.52;;;16.50;1.00;;;;;;5078632;28;20045;-59
2022/10/03 05:39:59;;;;;;;14.88;10.65;;;16.40;1.00;;;;;;5075204;28;20071;-59
2022/10/03 05:42:36;;;;;;;16.48;9.85;;;16.40;1.00;;;;;;5072008;28;20437;-59
2022/10/03 05:45:13;;;;;;;14.65;9.70;;;16.30;1.00;;;;;;5091865;28;20032;-59
2022/10/03 05:48:00;;;;;;;12.15;8.57;;;16.40;1.00;;;;;;5092641;28;20028;-59
2022/10/03 05:50:40;;;;;;;11.07;7.80;;;16.40;1.00;;;;;;5091980;28;20028;-59
2022/10/03 05:53:18;;;;;;;13.38;8.25;;;16.40;1.00;;;;;;5090979;28;20040;-59
2022/10/03 05:56:10;;;;;;;16.10;8.77;;;16.50;1.00;;;;;;5091613;28;20425;-59
2022/10/03 05:58:39;;;;;;;12.73;9.13;;;16.50;1.00;;;;;;5092481;28;20024;-59
2022/10/03 06:01:33;;;;;;;13.77;9.30;;;16.40;1.00;;;;;;5087160;28;20111;-59
2022/10/03 06:04:14;;;;;;;14.27;9.23;;;16.40;1.00;;;;;;5077367;28;20048;-59
2022/10/03 06:07:18;;;;;;;17.40;9.95;;;16.40;1.00;;;;;;5082096;28;20486;-59
2022/10/03 06:10:10;;;;;;;16.00;9.77;;;16.40;1.00;;;;;;5091564;28;20077;-59
2022/10/03 06:13:13;;;;;;;18.25;10.73;;;16.40;1.00;;;;;;5091810;28;20032;-59
2022/10/03 06:16:08;;;;;;;15.50;10.23;;;16.50;1.00;;;;;;5087258;28;20036;-59
2022/10/03 06:18:58;;;;;;;14.65;10.95;;;16.50;1.00;;;;;;5075970;28;20567;-59
2022/10/03 06:21:42;;;;;;;16.58;11.00;;;16.50;1.00;;;;;;5089249;28;20358;-59
2022/10/03 06:24:38;;;;;;;16.20;12.00;;;16.60;1.00;;;;;;5090828;28;20028;-59
2022/10/03 06:27:27;;;;;;;16.83;12.82;;;16.50;1.00;;;;;;5095033;28;20389;-60
2022/10/03 06:30:11;;;;;;;18.48;11.95;;;16.60;1.00;;;;;;5091028;28;20020;-59
2022/10/03 06:33:02;;;;;;;20.10;12.70;;;16.50;1.00;;;;;;5092044;28;20089;-59
2022/10/03 06:35:42;;;;;;;26.98;13.93;;;16.50;1.00;;;;;;5090689;28;20165;-59
2022/10/03 06:38:51;;;;;;;20.08;13.65;;;16.60;1.00;;;;;;5086594;28;20027;-59
2022/10/03 06:42:07;;;;;;;19.30;13.82;;;16.70;1.00;;;;;;5072100;28;20063;-59
2022/10/03 06:45:00;;;;;;;22.67;14.25;;;16.60;1.00;;;;;;5083242;28;20093;-59
2022/10/03 06:51:12;;;;;;;24.80;16.08;;;16.70;1.00;;;;;;5083603;28;20420;-59
2022/10/03 06:53:57;;;;;;;26.80;14.13;;;16.70;1.00;;;;;;5091729;28;20101;-60
2022/10/03 06:56:30;;;;;;;21.33;14.68;;;16.90;1.00;;;;;;5090957;28;20049;-59
2022/10/03 06:59:18;;;;;;;23.38;14.82;;;17.00;1.00;;;;;;5090583;28;20106;-59
2022/10/03 07:02:17;;;;;;;19.23;14.43;;;16.90;1.00;;;;;;5089525;28;20020;-59
2022/10/03 07:05:10;;;;;;;19.95;13.75;;;17.00;1.00;;;;;;5077829;28;20056;-59
2022/10/03 07:08:14;;;;;;;25.45;14.77;;;17.10;1.00;;;;;;5094953;28;20024;-59
2022/10/03 07:11:02;;;;;;;22.05;15.52;;;17.00;1.00;;;;;;5089019;28;20103;-59
2022/10/03 07:13:36;;;;;;;21.92;14.93;;;17.10;1.00;;;;;;5078944;28;20115;-59
2022/10/03 07:16:22;;;;;;;;;;;17.10;1.00;;;;;;5086744;28;20424;-59
2022/10/03 07:19:06;;;;;;;;;;;17.00;1.00;;;;;;5111808;28;19908;-59
2022/10/03 07:21:41;;;;;;;19.45;15.90;;;17.10;1.00;;;;;;5092984;28;20002;-59
2022/10/03 07:24:40;;;;;;;25.88;15.80;;;17.10;1.00;;;;;;5095590;28;20058;-59
2022/10/03 07:27:31;;;;;;;22.33;15.52;;;17.20;1.00;;;;;;5080279;28;20429;-59
2022/10/03 07:30:03;;;;;;;20.42;15.05;;;17.30;1.00;;;;;;5077466;28;20066;-59
2022/10/03 07:32:44;;;;;;;24.30;16.10;;;17.30;1.00;;;;;;5085289;28;20064;-59
2022/10/03 07:35:24;;;;;;;26.10;16.48;;;17.40;1.00;;;;;;5091603;28;20090;-59
2022/10/03 07:40:59;;;;;;;21.48;15.68;;;17.50;1.00;;;;;;5076895;28;20036;-59
2022/10/03 07:43:50;;;;;;;21.98;16.05;;;17.60;1.00;;;;;;5090922;28;20055;-59
2022/10/03 07:46:42;;;;;;;26.85;17.38;;;17.60;1.00;;;;;;5094398;28;20020;-59
2022/10/03 07:49:35;;;;;;;22.17;15.05;;;17.60;1.00;;;;;;5082663;28;20023;-59
2022/10/03 07:52:11;;;;;;;25.35;16.80;;;17.70;1.00;;;;;;5092520;28;20048;-59
2022/10/03 07:54:55;;;;;;;26.83;18.13;;;17.80;1.00;;;;;;5091362;28;20478;-59
2022/10/03 07:57:53;;;;;;;21.88;16.60;;;17.90;1.00;;;;;;5080615;28;20016;-59
2022/10/03 08:00:53;;;;;;;24.45;17.88;;;17.90;1.00;;;;;;5080315;28;20397;-59
2022/10/03 08:03:44;;;;;;;24.45;17.05;;;17.90;1.00;;;;;;5086024;28;20077;-59
2022/10/03 08:06:34;;;;;;;25.98;16.27;;;18.00;1.00;;;;;;5081676;28;20035;-59
2022/10/03 08:09:13;;;;;;;23.75;17.15;;;18.00;1.00;;;;;;5087745;28;20048;-59
2022/10/03 08:11:47;;;;;;;24.83;18.08;;;18.00;1.00;;;;;;5076010;28;20032;-59
2022/10/03 08:14:13;;;;;;;29.10;18.65;;;18.10;1.00;;;;;;5077591;28;20024;-59
2022/10/03 08:16:56;;;;;;;29.23;20.00;;;18.10;1.00;;;;;;5081822;28;20071;-59
2022/10/03 08:19:25;;;;;;;20.65;18.48;;;18.10;1.00;;;;;;5094067;28;20417;-59
2022/10/03 08:21:53;;;;;;;24.13;19.35;;;18.10;1.00;;;;;;5093508;28;20505;-59
2022/10/03 08:24:53;;;;;;;30.00;21.20;;;18.20;1.00;;;;;;5094433;28;20020;-59
2022/10/03 08:27:59;;;;;;;24.85;20.88;;;18.10;1.00;;;;;;5093290;28;20126;-59
2022/10/03 08:30:52;;;;;;;33.17;20.33;;;18.10;1.00;;;;;;5071724;28;20040;-58
2022/10/03 08:33:17;;;;;;;26.13;18.90;;;18.20;1.00;;;;;;5083715;28;20485;-59
2022/10/03 08:36:22;;;;;;;24.80;21.20;;;18.30;1.00;;;;;;5091807;28;20092;-58
2022/10/03 08:39:07;;;;;;;25.83;19.15;;;18.30;1.00;;;;;;5092123;28;20114;-59
2022/10/03 08:42:04;;;;;;;24.27;18.63;;;17.90;1.00;;;;;;5090652;28;20509;-59
2022/10/03 08:45:04;;;;;;;28.77;20.08;;;17.90;1.00;;;;;;5091845;28;20110;-59
2022/10/03 08:48:01;;;;;;;27.75;21.55;;;17.90;1.00;;;;;;5091267;28;20397;-58
2022/10/03 08:50:55;;;;;;;28.80;20.55;;;17.80;1.00;;;;;;5092340;28;20031;-58
2022/10/03 08:54:01;;;;;;;26.15;20.65;;;17.80;1.00;;;;;;5080405;28;20071;-58
2022/10/03 08:56:47;;;;;;;25.50;21.23;;;17.90;1.00;;;;;;5088631;28;20394;-59
2022/10/03 08:59:22;;;;;;;23.35;19.90;;;17.80;1.00;;;;;;5091907;28;20068;-59
2022/10/03 09:02:05;;;;;;;25.70;19.35;;;17.80;1.00;;;;;;5078794;28;20145;-58
2022/10/03 09:04:49;;;;;;;27.30;19.83;;;17.80;1.00;;;;;;5090809;28;20032;-58
2022/10/03 09:07:21;;;;;;;25.58;20.88;;;17.80;1.00;;;;;;5092619;28;20020;-58
2022/10/03 09:10:21;;;;;;;25.63;19.27;;;17.80;1.00;;;;;;5092728;28;20035;-58
2022/10/03 09:12:49;;;;;;;23.58;20.00;;;17.80;1.00;;;;;;5090169;28;20043;-58
2022/10/03 09:15:48;;;;;;;26.00;19.42;;;17.90;1.00;;;;;;5093139;28;20036;-59
2022/10/03 09:18:46;;;;;;;20.60;17.77;;;17.90;1.00;;;;;;5092661;28;20024;-59
2022/10/03 09:21:33;;;;;;;25.45;19.08;;;18.00;1.00;;;;;;5088868;28;20033;-59
2022/10/03 09:24:01;;;;;;;26.35;19.80;;;18.00;1.00;;;;;;5092011;28;20032;-59
2022/10/03 09:27:05;;;;;;;20.98;18.77;;;18.00;1.00;;;;;;5092083;28;20043;-59
2022/10/03 09:29:51;;;;;;;26.67;20.20;;;18.10;1.00;;;;;;5092525;28;20028;-59
2022/10/03 09:36:08;;;;;;;25.40;18.20;;;18.20;1.00;;;;;;5079045;28;20086;-59
2022/10/03 09:38:36;;;;;;;24.27;18.25;;;18.20;1.00;;;;;;5085377;28;20028;-58
2022/10/03 09:41:47;;;;;;;20.08;16.75;;;18.20;1.00;;;;;;5091085;28;20036;-59
2022/10/03 09:44:41;;;;;;;20.52;15.88;;;18.40;1.00;;;;;;5090243;28;20093;-58
2022/10/03 09:47:27;;;;;;;21.52;16.35;;;18.40;1.00;;;;;;5091948;28;20478;-58
2022/10/03 09:50:29;;;;;;;24.65;18.35;;;18.40;1.00;;;;;;5089642;28;20489;-58
2022/10/03 09:53:10;;;;;;;23.67;16.70;;;18.50;1.00;;;;;;5082363;28;20075;-58
2022/10/03 09:55:44;;;;;;;20.65;15.85;;;18.50;1.00;;;;;;5090644;28;20036;-58
2022/10/03 09:58:48;;;;;;;26.00;17.17;;;18.60;1.00;;;;;;5092026;28;20382;-58
2022/10/03 10:01:46;;;;;;;23.10;18.33;;;18.70;1.00;;;;;;5081656;28;20024;-58
2022/10/03 10:04:42;;;;;;;24.38;18.63;;;18.70;1.00;;;;;;5092224;28;20072;-58
2022/10/03 10:07:39;;;;;;;25.40;16.90;;;18.80;1.00;;;;;;5091542;28;20028;-58
2022/10/03 10:10:32;;;;;;;16.88;14.45;;;18.90;1.00;;;;;;5080234;28;20470;-58
2022/10/03 10:13:09;;;;;;;22.65;15.77;;;18.80;1.00;;;;;;5080775;28;20023;-59
2022/10/03 10:15:38;;;;;;;19.55;15.77;;;18.90;1.00;;;;;;5092402;28;20494;-57
2022/10/03 10:18:22;;;;;;;18.48;15.05;;;18.90;1.00;;;;;;5085189;28;20020;-59
2022/10/03 10:21:09;;;;;;;17.60;14.48;;;18.90;1.00;;;;;;5084675;28;20038;-59
2022/10/03 10:23:46;;;;;;;20.48;15.35;;;18.90;1.00;;;;;;5089030;28;20017;-59
2022/10/03 10:26:30;;;;;;;18.38;14.00;;;19.00;1.00;;;;;;5091684;28;20102;-59
2022/10/03 10:29:07;;;;;;;21.83;15.77;;;19.10;1.00;;;;;;5090634;28;20055;-53
2022/10/03 10:32:24;;;;;;;24.63;14.27;;;19.00;1.00;;;;;;5091672;28;20089;-57
2022/10/03 10:35:27;;;;;;;19.42;15.07;;;19.10;1.00;;;;;;5087861;28;20538;-57
2022/10/03 10:38:17;;;;;;;23.90;17.65;;;19.20;1.00;;;;;;5090926;28;20062;-56
2022/10/03 10:41:20;;;;;;;20.63;15.18;;;19.30;1.00;;;;;;5079460;28;20032;-53
2022/10/03 10:44:03;;;;;;;22.08;17.33;;;19.30;1.00;;;;;;5085769;28;20059;-56
2022/10/03 10:47:04;;;;;;;23.07;16.70;;;19.40;1.00;;;;;;5080731;28;20331;-57
2022/10/03 10:49:37;;;;;;;20.58;15.85;;;19.30;1.00;;;;;;5056958;28;20181;-57
2022/10/03 10:53:05;;;;;;;21.65;15.50;;;19.30;1.00;;;;;;5089154;28;20052;-57
2022/10/03 10:56:14;;;;;;;18.00;14.32;;;19.30;1.00;;;;;;5100957;28;20386;-58
2022/10/03 10:59:01;;;;;;;18.85;13.52;;;19.30;1.00;;;;;;5086756;28;20024;-57
2022/10/03 11:02:04;;;;;;;17.55;13.15;;;19.40;1.00;;;;;;5078628;28;20094;-56
2022/10/03 11:04:51;;;;;;;16.85;12.13;;;19.50;1.00;;;;;;5087076;28;20362;-58
2022/10/03 11:07:45;;;;;;;20.73;12.88;;;19.50;1.00;;;;;;5083193;28;20053;-56
2022/10/03 11:10:33;;;;;;;16.65;12.95;;;19.60;1.00;;;;;;5091829;28;20028;-57
2022/10/03 11:13:42;;;;;;;16.48;12.93;;;19.70;1.00;;;;;;5090211;28;20028;-57
2022/10/03 11:16:26;;;;;;;16.33;12.60;;;19.70;1.00;;;;;;5048964;28;20049;-57
2022/10/03 11:19:21;;;;;;;17.73;11.88;;;19.80;1.00;;;;;;5087615;28;20037;-56
2022/10/03 11:22:17;;;;;;;13.63;12.13;;;19.80;1.00;;;;;;5091739;28;20375;-54
2022/10/03 11:25:11;;;;;;;15.48;11.93;;;19.90;1.00;;;;;;5088131;28;20024;-55
2022/10/03 11:27:55;;;;;;;15.35;11.00;;;19.90;1.00;;;;;;5085016;28;20025;-57
2022/10/03 11:30:48;;;;;;;12.70;10.43;;;20.00;1.00;;;;;;5078052;28;20110;-52
2022/10/03 11:33:39;;;;;;;12.90;10.63;;;20.00;1.00;;;;;;5089439;28;20420;-53
2022/10/03 11:36:30;;;;;;;15.35;10.45;;;20.00;1.00;;;;;;5087888;28;20330;-56
2022/10/03 11:39:18;;;;;;;18.48;9.80;;;20.10;1.00;;;;;;5086962;28;20034;-57
2022/10/03 11:42:12;;;;;;;15.20;10.60;;;20.20;1.00;;;;;;5089217;28;20020;-57
2022/10/03 11:45:01;;;;;;;14.02;10.13;;;20.20;1.00;;;;;;5082681;28;20117;-55
2022/10/03 11:47:39;;;;;;;17.23;10.43;;;20.30;1.00;;;;;;5085376;28;20036;-56
2022/10/03 11:50:28;;;;;;;19.17;12.30;;;20.40;1.00;;;;;;5091201;28;20020;-56
2022/10/03 11:53:46;;;;;;;20.98;11.52;;;20.40;1.00;;;;;;5090199;28;20044;-53
2022/10/03 11:56:15;;;;;;;14.38;10.77;;;20.50;1.00;;;;;;5051270;28;20037;-51
2022/10/03 11:59:17;;;;;;;17.27;11.85;;;20.70;1.00;;;;;;5052741;28;20368;-52
2022/10/03 12:02:07;;;;;;;18.33;12.45;;;20.80;1.00;;;;;;5083292;28;20044;-54
2022/10/03 12:04:54;;;;;;;13.60;9.70;;;20.80;1.00;;;;;;5094993;28;20027;-52
2022/10/03 12:10:39;;;;;;;16.48;9.60;;;21.10;1.00;;;;;;5081196;28;20051;-52
2022/10/03 12:13:13;;;;;;;16.48;10.15;;;21.20;1.00;;;;;;5094669;28;20473;-55
2022/10/03 12:15:48;;;;;;;13.15;9.55;;;21.30;1.00;;;;;;5074511;28;20028;-53
2022/10/03 12:18:51;;;;;;;13.95;10.30;;;21.30;1.00;;;;;;5084458;28;20046;-51
2022/10/03 12:21:21;;;;;;;16.33;10.07;;;21.40;1.00;;;;;;5093847;28;20039;-52
2022/10/03 12:24:20;;;;;;;18.52;9.73;;;21.50;1.00;;;;;;5094113;28;20036;-52
2022/10/03 12:27:07;;;;;;;7.38;5.82;;;21.70;1.00;;;;;;5092770;28;20048;-60
2022/10/03 12:29:38;;;;;;;11.30;7.38;;;21.80;1.00;;;;;;5094282;28;20020;-63
2022/10/03 12:32:39;;;;;;;9.77;7.25;;;21.90;1.00;;;;;;5093114;28;20107;-62
2022/10/03 12:35:14;;;;;;;10.98;7.35;;;22.00;1.00;;;;;;5093501;28;20040;-63
2022/10/03 12:37:49;;;;;;;11.65;6.97;;;22.10;1.00;;;;;;5083800;28;20028;-49
2022/10/03 12:40:26;;;;;;;13.80;8.88;;;22.30;1.00;;;;;;5092363;28;20331;-51
2022/10/03 12:42:57;;;;;;;10.38;8.18;;;22.40;1.00;;;;;;5092848;28;20055;-57
2022/10/03 12:45:54;;;;;;;15.82;7.55;;;22.60;1.00;;;;;;5092918;28;20028;-56
2022/10/03 12:48:47;;;;;;;13.15;8.25;;;22.60;1.00;;;;;;5076699;28;20094;-48
2022/10/03 12:51:34;;;;;;;8.77;7.35;;;22.60;1.00;;;;;;5090840;28;20089;-60
2022/10/03 12:53:59;;;;;;;9.98;7.40;;;22.80;1.00;;;;;;5087467;28;20035;-48
2022/10/03 12:56:52;;;;;;;9.07;6.00;;;22.90;1.00;;;;;;5092456;28;20028;-60
2022/10/03 12:59:44;;;;;;;7.80;6.03;;;23.10;1.00;;;;;;5090555;28;20039;-55
2022/10/03 13:02:21;;;;;;;10.68;6.88;;;23.20;1.00;;;;;;5092404;28;20028;-51
2022/10/03 13:05:24;;;;;;;11.80;6.50;;;23.20;1.00;;;;;;5092962;28;20020;-61
2022/10/03 13:08:06;;;;;;;7.88;5.68;;;23.20;1.00;;;;;;5093429;28;20028;-53
2022/10/03 13:10:46;;;;;;;9.38;6.32;;;23.20;1.00;;;;;;5092535;28;20099;-64
2022/10/03 13:13:30;;;;;;;8.43;5.60;;;23.20;1.00;;;;;;5092908;28;20020;-52
2022/10/03 13:16:27;;;;;;;11.43;5.10;;;23.10;1.00;;;;;;5092920;28;20043;-59
2022/10/03 13:19:26;;;;;;;6.82;4.78;;;23.10;1.00;;;;;;5080990;28;20064;-60
2022/10/03 13:22:07;;;;;;;5.50;4.22;;;23.10;1.00;;;;;;5084458;28;20047;-60
2022/10/03 13:24:44;;;;;;;8.43;5.15;;;23.10;1.00;;;;;;5093310;28;20024;-60
2022/10/03 13:27:16;;;;;;;5.43;3.90;;;23.10;1.00;;;;;;5083159;28;20068;-63
2022/10/03 13:29:43;;;;;;;6.00;3.55;;;23.10;1.00;;;;;;5088270;28;20038;-62
2022/10/03 13:32:16;;;;;;;4.30;3.35;;;23.10;1.00;;;;;;5090901;28;20028;-69
2022/10/03 13:38:35;;;;;;;9.68;5.47;;;23.10;1.00;;;;;;5092581;28;20039;-66
2022/10/03 13:41:07;;;;;;;7.47;5.00;;;23.00;1.00;;;;;;5079526;28;20041;-68
2022/10/03 13:43:36;;;;;;;9.07;4.15;;;23.00;1.00;;;;;;5091053;28;20055;-64
2022/10/03 13:46:22;;;;;;;5.80;3.75;;;22.80;1.00;;;;;;5092448;28;20020;-65
2022/10/03 13:49:01;;;;;;;6.60;3.67;;;23.00;1.00;;;;;;5096147;28;20390;-65
2022/10/03 13:51:39;;;;;;;5.43;3.65;;;22.90;1.00;;;;;;5079300;28;20035;-65
2022/10/03 13:54:14;;;;;;;5.15;3.28;;;22.80;1.00;;;;;;5088325;28;20034;-68
2022/10/03 13:56:58;;;;;;;4.78;3.20;;;22.80;1.00;;;;;;5088917;28;20561;-68
2022/10/03 13:59:27;;;;;;;3.90;2.58;;;22.70;1.00;;;;;;5092838;28;20020;-62
2022/10/03 14:02:18;;;;;;;6.13;3.20;;;22.70;1.00;;;;;;5091784;28;20032;-64
2022/10/03 14:05:09;;;;;;;6.93;3.53;;;22.70;1.00;;;;;;5090892;28;20032;-67
2022/10/03 14:07:50;;;;;;;4.57;3.20;;;22.60;1.00;;;;;;5088762;28;20414;-65
2022/10/03 14:10:26;;;;;;;6.97;3.10;;;22.70;1.00;;;;;;5092788;28;20055;-68
2022/10/03 14:13:30;;;;;;;3.38;2.50;;;22.70;1.00;;;;;;5089281;28;20028;-63
2022/10/03 14:16:19;;;;;;;5.50;3.00;;;22.70;1.00;;;;;;5090054;28;20051;-68
2022/10/03 14:18:57;;;;;;;7.80;3.30;;;22.70;1.00;;;;;;5079677;28;20020;-69
2022/10/03 14:21:31;;;;;;;4.47;2.63;;;22.60;1.00;;;;;;5089996;28;20522;-64
2022/10/03 14:24:16;;;;;;;7.60;2.50;;;22.60;1.00;;;;;;5079095;28;20021;-71
2022/10/03 14:26:53;;;;;;;4.93;2.22;;;22.80;1.00;;;;;;5087886;28;20024;-68
2022/10/03 14:29:28;;;;;;;4.88;2.38;;;22.80;1.00;;;;;;5082546;28;20097;-65
2022/10/03 14:32:03;;;;;;;4.82;2.70;;;22.80;1.00;;;;;;5086814;28;20115;-64
2022/10/03 14:34:56;;;;;;;5.45;2.67;;;22.90;1.00;;;;;;5092215;28;20040;-61
2022/10/03 14:37:31;;;;;;;5.00;3.25;;;23.00;1.00;;;;;;5091891;28;20051;-58
2022/10/03 14:40:36;;;;;;;5.13;3.05;;;23.20;1.00;;;;;;5090553;28;20504;-61
2022/10/03 14:43:26;;;;;;;5.03;3.08;;;23.20;1.00;;;;;;5090246;28;20426;-61
2022/10/03 14:45:55;;;;;;;4.13;2.78;;;23.20;1.00;;;;;;5091057;28;20446;-62
2022/10/03 14:48:29;;;;;;;3.95;2.47;;;23.30;1.00;;;;;;5091666;28;20073;-67
2022/10/03 14:51:03;;;;;;;;;;;23.30;1.00;;;;;;5091727;28;20106;-65